Ferndale, CA

7:57 PM PDT on September 21, 2014 (GMT -0700)
Arcata | Change Station
CLOSE
Current Station
Airport
Location: Arcata,
Elevation: 217 ft
Nearby Weather Stations

Elev 217 ft 40.98 °N, 124.10 °W | Updated 15 minutes ago

Mostly Cloudy
Mostly Cloudy
62 °F
Feels Like 62 °F
N
5
Wind Variable Wind from South

Today
High -- | Low -- °F
--% Chance of Precip.
Yesterday
High -- | Low -- °F
Precip. -- in
7:03 AM 7:15 PM
Waning Crescent, 4% visible
Pressure 30.01 in
Visibility 10.0 miles
Clouds Few 900 ft
Overcast 1400 ft
Dew Point 58 °F
Humidity 86%
Rainfall 0.00 in
Snow Depth 0 in , 0 in , 0 in
UV 0 out of 12
Pollen 5.80 out of 12
Air Quality Not available.
Flu Activity Not available.
SPECI KACV 220242Z AUTO 18004KT 10SM FEW009 OVC014 17/14 A3001 RMK AO2 T01670144 $

More Conditions Fewer Conditions

Pressure 30.01 in
Visibility 10.0 miles
Clouds Few 900 ft
Overcast 1400 ft
Dew Point 58 °F
Humidity 86%
Rainfall 0.00 in
Snow Depth 0 in , 0 in , 0 in
UV 0 out of 12
Pollen 5.80 out of 12
Air Quality Not available.
Flu Activity Not available.
SPECI KACV 220242Z AUTO 18004KT 10SM FEW009 OVC014 17/14 A3001 RMK AO2 T01670144 $

More Conditions Fewer Conditions

10-Day Weather Forecast

Almanac

Astronomy

Sep. 21, 2014 Rise Set
Actual Time 7:03 AM PDT 7:15 PM PDT
Civil Twilight 6:36 AM PDT 7:42 PM PDT
Nautical Twilight 6:04 AM PDT 8:14 PM PDT
Astronomical Twilight 5:31 AM PDT 8:47 PM PDT
Moon 4:42 AM PDT (9/21) 5:55 PM PDT (9/21)
Length of Visible Light 13h 06m
Length of Day
12h 11m
Tomorrow will be 2m 39s shorter.
Waning Crescent, 4% of the Moon is Illuminated
Today
Waning Crescent
Sep 24
New
Oct 1
First Quarter
Oct 8
Full
Oct 15
Last Quarter

Today's Extremes

State Highs State Lows

Community

WunderPhotos

Upload Photos

1,755,371 photos uploaded!

WunderBlogs® & News

Nearby

Snow Depth

Station Depth Elevation
Tahoe City Cross 0 in 6750 ft
Adin Mountain 0 in 6200 ft
Burnside Lake 0 in 8139 ft
Hagan's Meadow 0 in 8000 ft
Summit Meadow 1 in 9122 ft

Earthquake Activity

City Distance Mag. Time & Date
Cloverdale, California 139 miles 2.5 9:15 PM PDT
2014-09-20
Eureka, California 23 miles 3.1 1:33 PM PDT
2014-09-20
The Geysers, California 149 miles 2.5 11:29 PM PDT
2014-09-17
Minimum magnitude displayed is 2.5.

Coastal Water Temperatures

Place Temperature
Crescent City, CA 63.0 °F
North Spit, CA 62.1 °F
Port Orford, OR 57.0 °F

Nearby Weather Stations